sensor_id;sensor_type;location;lat;lon;timestamp;P1;durP1;ratioP1;P2;durP2;ratioP2
5456;SDS011;2751;49.802;9.944;2023-08-21T00:02:22;18.53;;;17.13;;
5456;SDS011;2751;49.802;9.944;2023-08-21T00:04:52;17.77;;;16.47;;
5456;SDS011;2751;49.802;9.944;2023-08-21T00:07:19;18.50;;;17.10;;
5456;SDS011;2751;49.802;9.944;2023-08-21T00:09:46;18.67;;;17.37;;
5456;SDS011;2751;49.802;9.944;2023-08-21T00:12:13;18.07;;;16.87;;
5456;SDS011;2751;49.802;9.944;2023-08-21T00:14:40;18.40;;;16.87;;
5456;SDS011;2751;49.802;9.944;2023-08-21T00:17:07;17.73;;;16.53;;
5456;SDS011;2751;49.802;9.944;2023-08-21T00:19:34;18.43;;;16.90;;
5456;SDS011;2751;49.802;9.944;2023-08-21T00:22:02;17.70;;;16.40;;
5456;SDS011;2751;49.802;9.944;2023-08-21T00:24:29;17.10;;;15.67;;
5456;SDS011;2751;49.802;9.944;2023-08-21T00:26:56;18.27;;;16.80;;
5456;SDS011;2751;49.802;9.944;2023-08-21T00:29:23;17.17;;;15.80;;
5456;SDS011;2751;49.802;9.944;2023-08-21T00:31:50;18.77;;;16.97;;
5456;SDS011;2751;49.802;9.944;2023-08-21T00:34:17;17.60;;;16.20;;
5456;SDS011;2751;49.802;9.944;2023-08-21T00:36:44;18.60;;;17.07;;
5456;SDS011;2751;49.802;9.944;2023-08-21T00:39:12;18.47;;;17.27;;
5456;SDS011;2751;49.802;9.944;2023-08-21T00:41:39;17.90;;;16.60;;
5456;SDS011;2751;49.802;9.944;2023-08-21T00:44:06;18.90;;;17.40;;
5456;SDS011;2751;49.802;9.944;2023-08-21T00:46:32;17.63;;;16.23;;
5456;SDS011;2751;49.802;9.944;2023-08-21T00:49:00;17.57;;;16.10;;
5456;SDS011;2751;49.802;9.944;2023-08-21T00:51:28;17.07;;;15.80;;
5456;SDS011;2751;49.802;9.944;2023-08-21T00:53:55;16.37;;;15.17;;
5456;SDS011;2751;49.802;9.944;2023-08-21T00:56:24;17.43;;;16.00;;
5456;SDS011;2751;49.802;9.944;2023-08-21T00:58:51;18.33;;;16.77;;
5456;SDS011;2751;49.802;9.944;2023-08-21T01:01:18;17.93;;;16.40;;
5456;SDS011;2751;49.802;9.944;2023-08-21T01:03:50;17.00;;;15.80;;
5456;SDS011;2751;49.802;9.944;2023-08-21T01:06:18;17.40;;;16.20;;
5456;SDS011;2751;49.802;9.944;2023-08-21T01:08:47;17.77;;;16.57;;
5456;SDS011;2751;49.802;9.944;2023-08-21T01:11:25;17.63;;;16.33;;
5456;SDS011;2751;49.802;9.944;2023-08-21T01:13:59;16.33;;;15.03;;
5456;SDS011;2751;49.802;9.944;2023-08-21T01:16:32;17.43;;;16.03;;
5456;SDS011;2751;49.802;9.944;2023-08-21T01:19:00;17.67;;;16.30;;
5456;SDS011;2751;49.802;9.944;2023-08-21T01:21:29;17.13;;;15.87;;
5456;SDS011;2751;49.802;9.944;2023-08-21T01:23:58;16.97;;;15.53;;
5456;SDS011;2751;49.802;9.944;2023-08-21T01:26:25;16.73;;;15.40;;
5456;SDS011;2751;49.802;9.944;2023-08-21T01:28:52;16.30;;;14.90;;
5456;SDS011;2751;49.802;9.944;2023-08-21T01:31:21;17.63;;;16.20;;
5456;SDS011;2751;49.802;9.944;2023-08-21T01:33:53;17.93;;;16.33;;
5456;SDS011;2751;49.802;9.944;2023-08-21T01:36:22;17.00;;;15.73;;
5456;SDS011;2751;49.802;9.944;2023-08-21T01:38:51;17.37;;;15.97;;
5456;SDS011;2751;49.802;9.944;2023-08-21T01:41:19;18.03;;;16.33;;
5456;SDS011;2751;49.802;9.944;2023-08-21T01:43:49;16.50;;;15.33;;
5456;SDS011;2751;49.802;9.944;2023-08-21T01:46:16;16.50;;;15.20;;
5456;SDS011;2751;49.802;9.944;2023-08-21T01:48:43;17.47;;;15.97;;
5456;SDS011;2751;49.802;9.944;2023-08-21T01:51:10;16.27;;;14.90;;
5456;SDS011;2751;49.802;9.944;2023-08-21T01:53:37;16.30;;;15.00;;
5456;SDS011;2751;49.802;9.944;2023-08-21T01:56:03;18.80;;;16.90;;
5456;SDS011;2751;49.802;9.944;2023-08-21T01:58:32;16.37;;;15.07;;
5456;SDS011;2751;49.802;9.944;2023-08-21T02:00:59;16.33;;;14.80;;
5456;SDS011;2751;49.802;9.944;2023-08-21T02:03:26;16.90;;;15.40;;
5456;SDS011;2751;49.802;9.944;2023-08-21T02:05:55;17.03;;;15.73;;
5456;SDS011;2751;49.802;9.944;2023-08-21T02:08:25;16.13;;;14.90;;
5456;SDS011;2751;49.802;9.944;2023-08-21T02:10:56;16.50;;;15.20;;
5456;SDS011;2751;49.802;9.944;2023-08-21T02:13:23;15.83;;;14.53;;
5456;SDS011;2751;49.802;9.944;2023-08-21T02:15:52;16.10;;;14.80;;
5456;SDS011;2751;49.802;9.944;2023-08-21T02:18:19;16.17;;;14.73;;
5456;SDS011;2751;49.802;9.944;2023-08-21T02:20:46;16.33;;;14.93;;
5456;SDS011;2751;49.802;9.944;2023-08-21T02:23:13;15.53;;;14.33;;
5456;SDS011;2751;49.802;9.944;2023-08-21T02:25:40;15.90;;;14.40;;
5456;SDS011;2751;49.802;9.944;2023-08-21T02:28:08;16.10;;;14.90;;
5456;SDS011;2751;49.802;9.944;2023-08-21T02:30:35;15.57;;;14.37;;
5456;SDS011;2751;49.802;9.944;2023-08-21T02:33:07;16.40;;;15.10;;
5456;SDS011;2751;49.802;9.944;2023-08-21T02:35:34;16.30;;;14.80;;
5456;SDS011;2751;49.802;9.944;2023-08-21T02:38:01;15.90;;;14.50;;
5456;SDS011;2751;49.802;9.944;2023-08-21T02:40:28;16.63;;;14.47;;
5456;SDS011;2751;49.802;9.944;2023-08-21T02:42:55;15.70;;;14.60;;
5456;SDS011;2751;49.802;9.944;2023-08-21T02:45:21;16.87;;;15.57;;
5456;SDS011;2751;49.802;9.944;2023-08-21T02:47:48;15.37;;;14.17;;
5456;SDS011;2751;49.802;9.944;2023-08-21T02:50:17;15.50;;;14.30;;
5456;SDS011;2751;49.802;9.944;2023-08-21T02:52:43;15.63;;;14.33;;
5456;SDS011;2751;49.802;9.944;2023-08-21T02:55:10;16.03;;;14.63;;
5456;SDS011;2751;49.802;9.944;2023-08-21T02:57:37;16.23;;;14.83;;
5456;SDS011;2751;49.802;9.944;2023-08-21T03:00:05;16.40;;;14.90;;
5456;SDS011;2751;49.802;9.944;2023-08-21T03:02:32;15.67;;;14.40;;
5456;SDS011;2751;49.802;9.944;2023-08-21T03:05:00;16.30;;;14.57;;
5456;SDS011;2751;49.802;9.944;2023-08-21T03:07:28;15.03;;;13.67;;
5456;SDS011;2751;49.802;9.944;2023-08-21T03:09:55;14.70;;;13.60;;
5456;SDS011;2751;49.802;9.944;2023-08-21T03:12:22;14.83;;;13.70;;
5456;SDS011;2751;49.802;9.944;2023-08-21T03:14:49;16.90;;;15.50;;
5456;SDS011;2751;49.802;9.944;2023-08-21T03:17:15;14.90;;;13.90;;
5456;SDS011;2751;49.802;9.944;2023-08-21T03:19:43;16.03;;;14.60;;
5456;SDS011;2751;49.802;9.944;2023-08-21T03:22:10;16.30;;;14.87;;
5456;SDS011;2751;49.802;9.944;2023-08-21T03:24:39;15.83;;;14.63;;
5456;SDS011;2751;49.802;9.944;2023-08-21T03:27:06;16.57;;;15.17;;
5456;SDS011;2751;49.802;9.944;2023-08-21T03:29:33;15.90;;;14.60;;
5456;SDS011;2751;49.802;9.944;2023-08-21T03:32:01;15.10;;;13.90;;
5456;SDS011;2751;49.802;9.944;2023-08-21T03:34:29;15.37;;;14.17;;
5456;SDS011;2751;49.802;9.944;2023-08-21T03:36:56;15.33;;;14.00;;
5456;SDS011;2751;49.802;9.944;2023-08-21T03:39:24;15.33;;;13.87;;
5456;SDS011;2751;49.802;9.944;2023-08-21T03:41:52;14.97;;;13.53;;
5456;SDS011;2751;49.802;9.944;2023-08-21T03:44:20;14.93;;;13.73;;
5456;SDS011;2751;49.802;9.944;2023-08-21T03:46:46;15.00;;;13.60;;
5456;SDS011;2751;49.802;9.944;2023-08-21T03:49:14;15.30;;;13.83;;
5456;SDS011;2751;49.802;9.944;2023-08-21T03:51:41;14.63;;;13.33;;
5456;SDS011;2751;49.802;9.944;2023-08-21T03:54:08;14.40;;;13.27;;
5456;SDS011;2751;49.802;9.944;2023-08-21T03:56:37;14.90;;;13.50;;
5456;SDS011;2751;49.802;9.944;2023-08-21T03:59:06;17.23;;;14.00;;
5456;SDS011;2751;49.802;9.944;2023-08-21T04:01:33;15.03;;;13.50;;
5456;SDS011;2751;49.802;9.944;2023-08-21T04:04:00;15.10;;;14.00;;
5456;SDS011;2751;49.802;9.944;2023-08-21T04:06:27;14.97;;;13.67;;
5456;SDS011;2751;49.802;9.944;2023-08-21T04:08:54;15.77;;;13.90;;
5456;SDS011;2751;49.802;9.944;2023-08-21T04:11:22;15.23;;;13.93;;
5456;SDS011;2751;49.802;9.944;2023-08-21T04:13:49;14.40;;;13.13;;
5456;SDS011;2751;49.802;9.944;2023-08-21T04:16:17;14.83;;;13.43;;
5456;SDS011;2751;49.802;9.944;2023-08-21T04:18:46;15.70;;;14.40;;
5456;SDS011;2751;49.802;9.944;2023-08-21T04:21:13;14.47;;;13.47;;
5456;SDS011;2751;49.802;9.944;2023-08-21T04:23:40;15.13;;;13.67;;
5456;SDS011;2751;49.802;9.944;2023-08-21T04:26:07;14.97;;;13.67;;
5456;SDS011;2751;49.802;9.944;2023-08-21T04:28:34;15.57;;;14.00;;
5456;SDS011;2751;49.802;9.944;2023-08-21T04:31:04;14.87;;;13.57;;
5456;SDS011;2751;49.802;9.944;2023-08-21T04:33:32;14.30;;;13.10;;
5456;SDS011;2751;49.802;9.944;2023-08-21T04:35:59;14.73;;;13.47;;
5456;SDS011;2751;49.802;9.944;2023-08-21T04:38:26;15.07;;;13.83;;
5456;SDS011;2751;49.802;9.944;2023-08-21T04:40:53;14.70;;;13.47;;
5456;SDS011;2751;49.802;9.944;2023-08-21T04:43:20;14.80;;;13.53;;
5456;SDS011;2751;49.802;9.944;2023-08-21T04:45:47;15.07;;;13.60;;
5456;SDS011;2751;49.802;9.944;2023-08-21T04:48:15;18.43;;;14.30;;
5456;SDS011;2751;49.802;9.944;2023-08-21T04:50:44;16.00;;;13.27;;
5456;SDS011;2751;49.802;9.944;2023-08-21T04:53:12;15.37;;;13.87;;
5456;SDS011;2751;49.802;9.944;2023-08-21T04:55:39;15.33;;;13.83;;
5456;SDS011;2751;49.802;9.944;2023-08-21T04:58:06;15.17;;;13.73;;
5456;SDS011;2751;49.802;9.944;2023-08-21T05:00:34;15.13;;;13.63;;
5456;SDS011;2751;49.802;9.944;2023-08-21T05:03:01;14.27;;;12.73;;
5456;SDS011;2751;49.802;9.944;2023-08-21T05:05:29;15.53;;;14.20;;
5456;SDS011;2751;49.802;9.944;2023-08-21T05:07:57;16.90;;;12.57;;
5456;SDS011;2751;49.802;9.944;2023-08-21T05:10:24;13.87;;;12.70;;
5456;SDS011;2751;49.802;9.944;2023-08-21T05:12:51;14.70;;;13.47;;
5456;SDS011;2751;49.802;9.944;2023-08-21T05:15:17;14.93;;;13.60;;
5456;SDS011;2751;49.802;9.944;2023-08-21T05:17:44;14.60;;;13.10;;
5456;SDS011;2751;49.802;9.944;2023-08-21T05:20:11;13.70;;;12.70;;
5456;SDS011;2751;49.802;9.944;2023-08-21T05:22:39;15.27;;;13.87;;
5456;SDS011;2751;49.802;9.944;2023-08-21T05:25:08;15.50;;;12.80;;
5456;SDS011;2751;49.802;9.944;2023-08-21T05:27:35;15.70;;;14.03;;
5456;SDS011;2751;49.802;9.944;2023-08-21T05:30:03;14.57;;;13.37;;
5456;SDS011;2751;49.802;9.944;2023-08-21T05:32:30;14.47;;;13.27;;
5456;SDS011;2751;49.802;9.944;2023-08-21T05:34:57;14.80;;;13.43;;
5456;SDS011;2751;49.802;9.944;2023-08-21T05:37:24;15.33;;;13.90;;
5456;SDS011;2751;49.802;9.944;2023-08-21T05:39:52;16.23;;;14.70;;
5456;SDS011;2751;49.802;9.944;2023-08-21T05:42:20;16.57;;;14.73;;
5456;SDS011;2751;49.802;9.944;2023-08-21T05:44:47;15.80;;;14.17;;
5456;SDS011;2751;49.802;9.944;2023-08-21T05:47:14;15.47;;;14.27;;
5456;SDS011;2751;49.802;9.944;2023-08-21T05:49:41;15.53;;;14.30;;
5456;SDS011;2751;49.802;9.944;2023-08-21T05:52:08;16.87;;;15.17;;
5456;SDS011;2751;49.802;9.944;2023-08-21T05:54:35;16.93;;;15.33;;
5456;SDS011;2751;49.802;9.944;2023-08-21T05:57:03;15.23;;;13.83;;
5456;SDS011;2751;49.802;9.944;2023-08-21T05:59:31;16.33;;;14.83;;
5456;SDS011;2751;49.802;9.944;2023-08-21T06:01:59;15.70;;;14.30;;
5456;SDS011;2751;49.802;9.944;2023-08-21T06:04:26;17.20;;;15.50;;
5456;SDS011;2751;49.802;9.944;2023-08-21T06:06:53;15.90;;;14.50;;
5456;SDS011;2751;49.802;9.944;2023-08-21T06:09:20;17.03;;;15.63;;
5456;SDS011;2751;49.802;9.944;2023-08-21T06:11:46;17.80;;;16.00;;
5456;SDS011;2751;49.802;9.944;2023-08-21T06:14:13;16.97;;;15.47;;
5456;SDS011;2751;49.802;9.944;2023-08-21T06:16:42;16.63;;;14.90;;
5456;SDS011;2751;49.802;9.944;2023-08-21T06:19:10;17.00;;;15.53;;
5456;SDS011;2751;49.802;9.944;2023-08-21T06:21:37;18.27;;;16.10;;
5456;SDS011;2751;49.802;9.944;2023-08-21T06:24:04;16.77;;;15.47;;
5456;SDS011;2751;49.802;9.944;2023-08-21T06:26:31;17.70;;;16.20;;
5456;SDS011;2751;49.802;9.944;2023-08-21T06:28:57;18.83;;;17.00;;
5456;SDS011;2751;49.802;9.944;2023-08-21T06:31:24;17.93;;;16.53;;
5456;SDS011;2751;49.802;9.944;2023-08-21T06:33:53;17.43;;;16.03;;
5456;SDS011;2751;49.802;9.944;2023-08-21T06:36:20;18.03;;;16.43;;
5456;SDS011;2751;49.802;9.944;2023-08-21T06:38:46;18.67;;;17.10;;
5456;SDS011;2751;49.802;9.944;2023-08-21T06:41:13;18.30;;;16.90;;
5456;SDS011;2751;49.802;9.944;2023-08-21T06:43:40;18.20;;;16.70;;
5456;SDS011;2751;49.802;9.944;2023-08-21T06:46:07;18.67;;;17.07;;
5456;SDS011;2751;49.802;9.944;2023-08-21T06:48:36;19.40;;;17.60;;
5456;SDS011;2751;49.802;9.944;2023-08-21T06:51:05;22.60;;;20.80;;
5456;SDS011;2751;49.802;9.944;2023-08-21T06:53:32;20.77;;;18.87;;
5456;SDS011;2751;49.802;9.944;2023-08-21T06:56:00;19.97;;;18.07;;
5456;SDS011;2751;49.802;9.944;2023-08-21T06:58:27;19.80;;;18.20;;
5456;SDS011;2751;49.802;9.944;2023-08-21T07:00:54;20.10;;;18.60;;
5456;SDS011;2751;49.802;9.944;2023-08-21T07:03:21;20.73;;;19.13;;
5456;SDS011;2751;49.802;9.944;2023-08-21T07:05:53;21.20;;;19.30;;
5456;SDS011;2751;49.802;9.944;2023-08-21T07:08:22;21.90;;;19.70;;
5456;SDS011;2751;49.802;9.944;2023-08-21T07:10:49;21.70;;;20.10;;
5456;SDS011;2751;49.802;9.944;2023-08-21T07:13:17;20.63;;;18.93;;
5456;SDS011;2751;49.802;9.944;2023-08-21T07:15:44;20.40;;;18.80;;
5456;SDS011;2751;49.802;9.944;2023-08-21T07:18:11;21.07;;;19.47;;
5456;SDS011;2751;49.802;9.944;2023-08-21T07:20:38;21.77;;;19.90;;
5456;SDS011;2751;49.802;9.944;2023-08-21T07:23:05;21.57;;;19.77;;
5456;SDS011;2751;49.802;9.944;2023-08-21T07:25:34;22.97;;;20.93;;
5456;SDS011;2751;49.802;9.944;2023-08-21T07:28:00;22.10;;;20.40;;
5456;SDS011;2751;49.802;9.944;2023-08-21T07:30:27;23.47;;;21.67;;
5456;SDS011;2751;49.802;9.944;2023-08-21T07:32:54;23.13;;;21.33;;
5456;SDS011;2751;49.802;9.944;2023-08-21T07:35:21;22.83;;;20.97;;
5456;SDS011;2751;49.802;9.944;2023-08-21T07:37:48;22.20;;;20.47;;
5456;SDS011;2751;49.802;9.944;2023-08-21T07:40:15;22.70;;;21.00;;
5456;SDS011;2751;49.802;9.944;2023-08-21T07:42:43;23.60;;;21.30;;
5456;SDS011;2751;49.802;9.944;2023-08-21T07:45:10;23.43;;;21.20;;
5456;SDS011;2751;49.802;9.944;2023-08-21T07:47:37;22.97;;;21.03;;
5456;SDS011;2751;49.802;9.944;2023-08-21T07:50:04;23.13;;;21.23;;
5456;SDS011;2751;49.802;9.944;2023-08-21T07:52:32;23.37;;;21.03;;
5456;SDS011;2751;49.802;9.944;2023-08-21T07:54:59;23.40;;;21.50;;
5456;SDS011;2751;49.802;9.944;2023-08-21T07:57:26;23.80;;;22.00;;
5456;SDS011;2751;49.802;9.944;2023-08-21T07:59:55;22.30;;;20.70;;
5456;SDS011;2751;49.802;9.944;2023-08-21T08:02:22;23.63;;;21.73;;
5456;SDS011;2751;49.802;9.944;2023-08-21T08:04:50;22.97;;;21.33;;
5456;SDS011;2751;49.802;9.944;2023-08-21T08:07:17;22.67;;;20.87;;
5456;SDS011;2751;49.802;9.944;2023-08-21T08:09:43;23.60;;;21.67;;
5456;SDS011;2751;49.802;9.944;2023-08-21T08:12:12;22.13;;;20.23;;
5456;SDS011;2751;49.802;9.944;2023-08-21T08:14:39;24.47;;;22.40;;
5456;SDS011;2751;49.802;9.944;2023-08-21T08:17:07;23.63;;;21.73;;
5456;SDS011;2751;49.802;9.944;2023-08-21T08:19:34;23.07;;;21.00;;
5456;SDS011;2751;49.802;9.944;2023-08-21T08:22:01;24.17;;;22.03;;
5456;SDS011;2751;49.802;9.944;2023-08-21T08:24:28;24.07;;;22.20;;
5456;SDS011;2751;49.802;9.944;2023-08-21T08:26:57;23.07;;;21.13;;
5456;SDS011;2751;49.802;9.944;2023-08-21T08:29:31;23.47;;;21.70;;
5456;SDS011;2751;49.802;9.944;2023-08-21T08:31:58;23.90;;;22.00;;
5456;SDS011;2751;49.802;9.944;2023-08-21T08:34:26;23.70;;;22.00;;
5456;SDS011;2751;49.802;9.944;2023-08-21T08:36:53;22.53;;;20.90;;
5456;SDS011;2751;49.802;9.944;2023-08-21T08:39:23;23.97;;;22.20;;
5456;SDS011;2751;49.802;9.944;2023-08-21T08:42:05;24.70;;;22.60;;
5456;SDS011;2751;49.802;9.944;2023-08-21T08:44:41;23.63;;;21.90;;
5456;SDS011;2751;49.802;9.944;2023-08-21T08:47:09;24.87;;;22.60;;
5456;SDS011;2751;49.802;9.944;2023-08-21T08:49:38;23.33;;;21.63;;
5456;SDS011;2751;49.802;9.944;2023-08-21T08:52:09;22.20;;;20.70;;
5456;SDS011;2751;49.802;9.944;2023-08-21T08:55:16;22.43;;;20.83;;
5456;SDS011;2751;49.802;9.944;2023-08-21T08:58:01;21.63;;;20.23;;
5456;SDS011;2751;49.802;9.944;2023-08-21T09:01:05;21.43;;;20.03;;
5456;SDS011;2751;49.802;9.944;2023-08-21T09:03:43;20.60;;;19.30;;
5456;SDS011;2751;49.802;9.944;2023-08-21T09:24:18;18.07;;;16.80;;
5456;SDS011;2751;49.802;9.944;2023-08-21T09:30:44;16.93;;;15.63;;
5456;SDS011;2751;49.802;9.944;2023-08-21T09:37:17;17.33;;;16.33;;
5456;SDS011;2751;49.802;9.944;2023-08-21T09:39:56;15.90;;;15.00;;
5456;SDS011;2751;49.802;9.944;2023-08-21T09:42:47;17.47;;;16.17;;
5456;SDS011;2751;49.802;9.944;2023-08-21T09:45:46;15.30;;;14.23;;
5456;SDS011;2751;49.802;9.944;2023-08-21T09:48:41;14.93;;;13.93;;
5456;SDS011;2751;49.802;9.944;2023-08-21T09:51:28;14.53;;;13.63;;
5456;SDS011;2751;49.802;9.944;2023-08-21T09:54:22;15.07;;;13.90;;
5456;SDS011;2751;49.802;9.944;2023-08-21T09:56:49;15.63;;;14.77;;
5456;SDS011;2751;49.802;9.944;2023-08-21T09:59:23;15.20;;;14.37;;
5456;SDS011;2751;49.802;9.944;2023-08-21T10:02:13;14.40;;;13.60;;
5456;SDS011;2751;49.802;9.944;2023-08-21T10:05:23;15.73;;;14.53;;
5456;SDS011;2751;49.802;9.944;2023-08-21T10:07:50;14.60;;;13.80;;
5456;SDS011;2751;49.802;9.944;2023-08-21T10:10:20;14.00;;;13.20;;
5456;SDS011;2751;49.802;9.944;2023-08-21T10:12:47;14.60;;;13.80;;
5456;SDS011;2751;49.802;9.944;2023-08-21T10:15:14;14.23;;;13.37;;
5456;SDS011;2751;49.802;9.944;2023-08-21T10:17:43;14.10;;;13.40;;
5456;SDS011;2751;49.802;9.944;2023-08-21T10:20:10;14.40;;;13.47;;
5456;SDS011;2751;49.802;9.944;2023-08-21T10:22:38;14.20;;;13.20;;
5456;SDS011;2751;49.802;9.944;2023-08-21T10:25:15;13.67;;;12.87;;
5456;SDS011;2751;49.802;9.944;2023-08-21T10:27:51;15.00;;;14.20;;
5456;SDS011;2751;49.802;9.944;2023-08-21T10:30:53;14.97;;;13.97;;
5456;SDS011;2751;49.802;9.944;2023-08-21T10:36:11;13.53;;;12.73;;
5456;SDS011;2751;49.802;9.944;2023-08-21T10:41:26;14.17;;;13.37;;
5456;SDS011;2751;49.802;9.944;2023-08-21T10:43:55;12.80;;;12.07;;
5456;SDS011;2751;49.802;9.944;2023-08-21T10:46:22;13.70;;;13.00;;
5456;SDS011;2751;49.802;9.944;2023-08-21T10:48:49;14.70;;;13.70;;
5456;SDS011;2751;49.802;9.944;2023-08-21T10:51:19;13.53;;;12.53;;
5456;SDS011;2751;49.802;9.944;2023-08-21T10:54:12;12.83;;;12.23;;
5456;SDS011;2751;49.802;9.944;2023-08-21T10:56:45;12.60;;;12.00;;
5456;SDS011;2751;49.802;9.944;2023-08-21T10:59:13;12.87;;;12.17;;
5456;SDS011;2751;49.802;9.944;2023-08-21T11:01:43;12.43;;;11.70;;
5456;SDS011;2751;49.802;9.944;2023-08-21T11:04:10;12.60;;;11.73;;
5456;SDS011;2751;49.802;9.944;2023-08-21T11:06:37;12.80;;;12.10;;
5456;SDS011;2751;49.802;9.944;2023-08-21T11:09:05;12.10;;;11.40;;
5456;SDS011;2751;49.802;9.944;2023-08-21T11:11:38;11.53;;;11.03;;
5456;SDS011;2751;49.802;9.944;2023-08-21T11:14:05;11.50;;;10.90;;
5456;SDS011;2751;49.802;9.944;2023-08-21T11:16:47;10.90;;;10.40;;
5456;SDS011;2751;49.802;9.944;2023-08-21T11:19:14;11.30;;;10.80;;
5456;SDS011;2751;49.802;9.944;2023-08-21T11:21:41;11.83;;;11.33;;
5456;SDS011;2751;49.802;9.944;2023-08-21T11:24:08;10.80;;;10.30;;
5456;SDS011;2751;49.802;9.944;2023-08-21T11:26:35;11.00;;;10.50;;
5456;SDS011;2751;49.802;9.944;2023-08-21T11:29:02;11.10;;;10.50;;
5456;SDS011;2751;49.802;9.944;2023-08-21T11:31:29;10.57;;;10.00;;
5456;SDS011;2751;49.802;9.944;2023-08-21T11:33:57;11.43;;;10.83;;
5456;SDS011;2751;49.802;9.944;2023-08-21T11:36:24;11.20;;;10.70;;
5456;SDS011;2751;49.802;9.944;2023-08-21T11:38:57;11.67;;;10.60;;
5456;SDS011;2751;49.802;9.944;2023-08-21T11:41:25;10.80;;;10.13;;
5456;SDS011;2751;49.802;9.944;2023-08-21T11:43:52;9.90;;;9.50;;
5456;SDS011;2751;49.802;9.944;2023-08-21T11:46:19;10.43;;;9.93;;
5456;SDS011;2751;49.802;9.944;2023-08-21T11:49:05;10.80;;;10.30;;
5456;SDS011;2751;49.802;9.944;2023-08-21T11:51:55;11.17;;;10.57;;
5456;SDS011;2751;49.802;9.944;2023-08-21T11:54:39;10.67;;;10.00;;
5456;SDS011;2751;49.802;9.944;2023-08-21T11:57:24;10.87;;;10.37;;
5456;SDS011;2751;49.802;9.944;2023-08-21T11:59:57;10.33;;;9.83;;
5456;SDS011;2751;49.802;9.944;2023-08-21T12:05:59;10.57;;;10.13;;
5456;SDS011;2751;49.802;9.944;2023-08-21T12:08:46;10.00;;;9.53;;
5456;SDS011;2751;49.802;9.944;2023-08-21T12:11:14;10.47;;;9.77;;
5456;SDS011;2751;49.802;9.944;2023-08-21T12:13:43;13.70;;;10.00;;
5456;SDS011;2751;49.802;9.944;2023-08-21T12:16:10;10.73;;;10.00;;
5456;SDS011;2751;49.802;9.944;2023-08-21T12:18:36;10.83;;;10.23;;
5456;SDS011;2751;49.802;9.944;2023-08-21T12:21:05;10.73;;;10.23;;
5456;SDS011;2751;49.802;9.944;2023-08-21T12:23:33;11.20;;;10.70;;
5456;SDS011;2751;49.802;9.944;2023-08-21T12:25:59;12.20;;;11.30;;
5456;SDS011;2751;49.802;9.944;2023-08-21T12:28:26;12.00;;;11.30;;
5456;SDS011;2751;49.802;9.944;2023-08-21T12:30:53;11.33;;;10.73;;
5456;SDS011;2751;49.802;9.944;2023-08-21T12:33:20;12.63;;;12.00;;
5456;SDS011;2751;49.802;9.944;2023-08-21T12:35:47;12.47;;;11.77;;
5456;SDS011;2751;49.802;9.944;2023-08-21T12:38:15;12.00;;;11.40;;
5456;SDS011;2751;49.802;9.944;2023-08-21T12:40:42;11.80;;;11.17;;
5456;SDS011;2751;49.802;9.944;2023-08-21T12:43:09;11.10;;;10.30;;
5456;SDS011;2751;49.802;9.944;2023-08-21T12:45:36;11.87;;;11.23;;
5456;SDS011;2751;49.802;9.944;2023-08-21T12:48:03;11.43;;;10.93;;
5456;SDS011;2751;49.802;9.944;2023-08-21T12:50:30;11.53;;;10.87;;
5456;SDS011;2751;49.802;9.944;2023-08-21T12:52:57;11.23;;;10.73;;
5456;SDS011;2751;49.802;9.944;2023-08-21T12:55:25;10.80;;;10.30;;
5456;SDS011;2751;49.802;9.944;2023-08-21T12:57:52;11.20;;;10.70;;
5456;SDS011;2751;49.802;9.944;2023-08-21T13:00:19;10.67;;;10.10;;
5456;SDS011;2751;49.802;9.944;2023-08-21T13:02:46;12.37;;;11.80;;
5456;SDS011;2751;49.802;9.944;2023-08-21T13:05:13;11.03;;;10.43;;
5456;SDS011;2751;49.802;9.944;2023-08-21T13:07:41;11.30;;;10.70;;
5456;SDS011;2751;49.802;9.944;2023-08-21T13:10:08;11.63;;;10.83;;
5456;SDS011;2751;49.802;9.944;2023-08-21T13:12:36;10.57;;;10.03;;
5456;SDS011;2751;49.802;9.944;2023-08-21T13:15:03;14.23;;;13.53;;
5456;SDS011;2751;49.802;9.944;2023-08-21T13:17:32;11.43;;;11.00;;
5456;SDS011;2751;49.802;9.944;2023-08-21T13:19:59;11.90;;;11.20;;
5456;SDS011;2751;49.802;9.944;2023-08-21T13:22:26;12.00;;;11.33;;
5456;SDS011;2751;49.802;9.944;2023-08-21T13:24:52;12.60;;;12.00;;
5456;SDS011;2751;49.802;9.944;2023-08-21T13:27:19;12.40;;;11.70;;
5456;SDS011;2751;49.802;9.944;2023-08-21T13:29:48;11.80;;;11.30;;
5456;SDS011;2751;49.802;9.944;2023-08-21T13:32:14;12.37;;;11.77;;
5456;SDS011;2751;49.802;9.944;2023-08-21T13:34:41;11.67;;;11.07;;
5456;SDS011;2751;49.802;9.944;2023-08-21T13:37:08;11.77;;;11.17;;
5456;SDS011;2751;49.802;9.944;2023-08-21T13:39:35;11.97;;;11.47;;
5456;SDS011;2751;49.802;9.944;2023-08-21T13:42:02;11.70;;;11.00;;
5456;SDS011;2751;49.802;9.944;2023-08-21T13:44:29;12.20;;;11.50;;
5456;SDS011;2751;49.802;9.944;2023-08-21T13:46:57;12.53;;;11.83;;
5456;SDS011;2751;49.802;9.944;2023-08-21T13:49:27;12.90;;;12.03;;
5456;SDS011;2751;49.802;9.944;2023-08-21T13:51:54;13.13;;;12.53;;
5456;SDS011;2751;49.802;9.944;2023-08-21T13:54:20;12.07;;;11.47;;
5456;SDS011;2751;49.802;9.944;2023-08-21T13:56:47;12.50;;;11.90;;
5456;SDS011;2751;49.802;9.944;2023-08-21T13:59:14;11.00;;;10.50;;
5456;SDS011;2751;49.802;9.944;2023-08-21T14:01:41;11.20;;;10.70;;
5456;SDS011;2751;49.802;9.944;2023-08-21T14:04:09;11.63;;;11.13;;
5456;SDS011;2751;49.802;9.944;2023-08-21T14:06:36;11.60;;;10.90;;
5456;SDS011;2751;49.802;9.944;2023-08-21T14:09:03;12.50;;;11.90;;
5456;SDS011;2751;49.802;9.944;2023-08-21T14:11:30;12.90;;;12.10;;
5456;SDS011;2751;49.802;9.944;2023-08-21T14:13:57;13.70;;;13.00;;
5456;SDS011;2751;49.802;9.944;2023-08-21T14:16:23;12.70;;;12.00;;
5456;SDS011;2751;49.802;9.944;2023-08-21T14:18:50;13.47;;;12.77;;
5456;SDS011;2751;49.802;9.944;2023-08-21T14:21:19;14.60;;;13.83;;
5456;SDS011;2751;49.802;9.944;2023-08-21T14:23:45;13.63;;;12.93;;
5456;SDS011;2751;49.802;9.944;2023-08-21T14:26:12;13.70;;;12.90;;
5456;SDS011;2751;49.802;9.944;2023-08-21T14:28:39;13.07;;;12.37;;
5456;SDS011;2751;49.802;9.944;2023-08-21T14:31:06;12.90;;;12.30;;
5456;SDS011;2751;49.802;9.944;2023-08-21T14:33:33;12.80;;;12.03;;
5456;SDS011;2751;49.802;9.944;2023-08-21T14:36:00;13.20;;;12.50;;
5456;SDS011;2751;49.802;9.944;2023-08-21T14:38:28;13.00;;;12.30;;
5456;SDS011;2751;49.802;9.944;2023-08-21T14:40:55;13.87;;;12.97;;
5456;SDS011;2751;49.802;9.944;2023-08-21T14:43:23;13.80;;;12.80;;
5456;SDS011;2751;49.802;9.944;2023-08-21T14:45:49;14.23;;;13.53;;
5456;SDS011;2751;49.802;9.944;2023-08-21T14:48:16;13.70;;;12.90;;
5456;SDS011;2751;49.802;9.944;2023-08-21T14:50:43;13.70;;;12.80;;
5456;SDS011;2751;49.802;9.944;2023-08-21T14:53:10;13.07;;;12.37;;
5456;SDS011;2751;49.802;9.944;2023-08-21T14:55:38;13.27;;;12.60;;
5456;SDS011;2751;49.802;9.944;2023-08-21T14:58:05;12.33;;;11.70;;
5456;SDS011;2751;49.802;9.944;2023-08-21T15:00:34;13.80;;;12.83;;
5456;SDS011;2751;49.802;9.944;2023-08-21T15:03:01;12.90;;;12.30;;
5456;SDS011;2751;49.802;9.944;2023-08-21T15:05:28;12.97;;;12.20;;
5456;SDS011;2751;49.802;9.944;2023-08-21T15:07:55;13.20;;;12.53;;
5456;SDS011;2751;49.802;9.944;2023-08-21T15:10:25;13.37;;;12.50;;
5456;SDS011;2751;49.802;9.944;2023-08-21T15:12:53;14.20;;;13.30;;
5456;SDS011;2751;49.802;9.944;2023-08-21T15:15:20;12.97;;;12.27;;
5456;SDS011;2751;49.802;9.944;2023-08-21T15:17:47;12.30;;;11.73;;
5456;SDS011;2751;49.802;9.944;2023-08-21T15:20:14;12.30;;;11.70;;
5456;SDS011;2751;49.802;9.944;2023-08-21T15:22:41;12.43;;;11.80;;
5456;SDS011;2751;49.802;9.944;2023-08-21T15:25:09;12.20;;;11.63;;
5456;SDS011;2751;49.802;9.944;2023-08-21T15:27:36;12.33;;;11.73;;
5456;SDS011;2751;49.802;9.944;2023-08-21T15:30:05;12.00;;;11.40;;
5456;SDS011;2751;49.802;9.944;2023-08-21T15:32:33;12.30;;;11.67;;
5456;SDS011;2751;49.802;9.944;2023-08-21T15:35:00;12.27;;;11.67;;